sensor_id;sensor_type;location;lat;lon;timestamp;P1;durP1;ratioP1;P2;durP2;ratioP2
54557;SDS011;40452;50.080;20.040;2023-02-28T04:13:41;8.23;;;4.93;;
54557;SDS011;40452;50.080;20.040;2023-02-28T04:16:07;7.95;;;4.20;;
54557;SDS011;40452;50.080;20.040;2023-02-28T04:18:37;7.93;;;3.83;;
54557;SDS011;40452;50.080;20.040;2023-02-28T04:21:04;10.73;;;3.40;;
54557;SDS011;40452;50.080;20.040;2023-02-28T04:23:30;5.78;;;3.40;;
54557;SDS011;40452;50.080;20.040;2023-02-28T04:25:56;5.63;;;3.22;;
54557;SDS011;40452;50.080;20.040;2023-02-28T04:28:22;5.35;;;3.13;;
54557;SDS011;40452;50.080;20.040;2023-02-28T04:30:47;5.50;;;2.78;;
54557;SDS011;40452;50.080;20.040;2023-02-28T04:33:19;6.22;;;3.90;;
54557;SDS011;40452;50.080;20.040;2023-02-28T04:35:45;7.50;;;4.30;;
54557;SDS011;40452;50.080;20.040;2023-02-28T04:38:10;8.45;;;4.78;;
54557;SDS011;40452;50.080;20.040;2023-02-28T04:40:36;8.70;;;5.25;;
54557;SDS011;40452;50.080;20.040;2023-02-28T04:43:01;9.35;;;4.90;;
54557;SDS011;40452;50.080;20.040;2023-02-28T04:45:28;9.77;;;5.35;;
54557;SDS011;40452;50.080;20.040;2023-02-28T04:47:56;11.18;;;6.13;;
54557;SDS011;40452;50.080;20.040;2023-02-28T04:50:22;10.85;;;6.10;;
54557;SDS011;40452;50.080;20.040;2023-02-28T04:52:48;10.70;;;5.55;;
54557;SDS011;40452;50.080;20.040;2023-02-28T04:55:14;10.38;;;6.07;;
54557;SDS011;40452;50.080;20.040;2023-02-28T04:57:39;11.13;;;5.95;;
54557;SDS011;40452;50.080;20.040;2023-02-28T05:00:07;10.43;;;5.78;;
54557;SDS011;40452;50.080;20.040;2023-02-28T05:02:36;12.20;;;6.10;;
54557;SDS011;40452;50.080;20.040;2023-02-28T05:05:02;10.88;;;5.70;;
54557;SDS011;40452;50.080;20.040;2023-02-28T05:07:27;11.63;;;6.20;;
54557;SDS011;40452;50.080;20.040;2023-02-28T05:09:53;10.63;;;5.95;;
54557;SDS011;40452;50.080;20.040;2023-02-28T05:12:18;11.40;;;6.30;;
54557;SDS011;40452;50.080;20.040;2023-02-28T05:14:45;12.23;;;6.38;;
54557;SDS011;40452;50.080;20.040;2023-02-28T05:17:10;10.60;;;5.95;;
54557;SDS011;40452;50.080;20.040;2023-02-28T05:19:35;10.75;;;5.60;;
54557;SDS011;40452;50.080;20.040;2023-02-28T05:22:01;10.13;;;6.10;;
54557;SDS011;40452;50.080;20.040;2023-02-28T05:24:27;11.63;;;6.35;;
54557;SDS011;40452;50.080;20.040;2023-02-28T05:26:53;9.40;;;5.60;;
54557;SDS011;40452;50.080;20.040;2023-02-28T05:29:19;12.05;;;6.20;;
54557;SDS011;40452;50.080;20.040;2023-02-28T05:31:45;9.73;;;6.10;;
54557;SDS011;40452;50.080;20.040;2023-02-28T05:34:11;13.52;;;6.82;;
54557;SDS011;40452;50.080;20.040;2023-02-28T05:36:37;12.15;;;6.05;;
54557;SDS011;40452;50.080;20.040;2023-02-28T05:39:04;10.50;;;5.78;;
54557;SDS011;40452;50.080;20.040;2023-02-28T05:41:30;11.82;;;6.20;;
54557;SDS011;40452;50.080;20.040;2023-02-28T05:43:56;9.90;;;5.60;;
54557;SDS011;40452;50.080;20.040;2023-02-28T05:46:22;11.30;;;6.30;;
54557;SDS011;40452;50.080;20.040;2023-02-28T05:48:48;10.27;;;5.63;;
54557;SDS011;40452;50.080;20.040;2023-02-28T05:51:13;11.63;;;6.18;;
54557;SDS011;40452;50.080;20.040;2023-02-28T05:53:39;11.52;;;6.05;;
54557;SDS011;40452;50.080;20.040;2023-02-28T05:56:04;12.40;;;6.20;;
54557;SDS011;40452;50.080;20.040;2023-02-28T05:58:30;12.23;;;6.18;;
54557;SDS011;40452;50.080;20.040;2023-02-28T06:00:56;14.93;;;8.68;;
54557;SDS011;40452;50.080;20.040;2023-02-28T06:03:43;21.15;;;12.23;;
54557;SDS011;40452;50.080;20.040;2023-02-28T06:06:08;19.52;;;12.30;;
54557;SDS011;40452;50.080;20.040;2023-02-28T06:08:34;22.88;;;13.23;;
54557;SDS011;40452;50.080;20.040;2023-02-28T06:11:02;21.40;;;12.93;;
54557;SDS011;40452;50.080;20.040;2023-02-28T06:13:28;25.90;;;14.60;;
54557;SDS011;40452;50.080;20.040;2023-02-28T06:15:53;27.70;;;14.30;;
54557;SDS011;40452;50.080;20.040;2023-02-28T06:18:19;28.52;;;14.57;;
54557;SDS011;40452;50.080;20.040;2023-02-28T06:20:53;28.67;;;14.68;;
54557;SDS011;40452;50.080;20.040;2023-02-28T06:23:19;19.58;;;10.52;;
54557;SDS011;40452;50.080;20.040;2023-02-28T06:25:45;14.10;;;8.55;;
54557;SDS011;40452;50.080;20.040;2023-02-28T06:28:11;15.43;;;8.20;;
54557;SDS011;40452;50.080;20.040;2023-02-28T06:30:37;15.98;;;8.25;;
54557;SDS011;40452;50.080;20.040;2023-02-28T06:33:03;14.15;;;7.65;;
54557;SDS011;40452;50.080;20.040;2023-02-28T06:35:28;13.57;;;7.10;;
54557;SDS011;40452;50.080;20.040;2023-02-28T06:37:54;17.45;;;7.65;;
54557;SDS011;40452;50.080;20.040;2023-02-28T06:40:20;15.27;;;6.88;;
54557;SDS011;40452;50.080;20.040;2023-02-28T06:42:45;13.98;;;6.60;;
54557;SDS011;40452;50.080;20.040;2023-02-28T06:45:11;12.38;;;6.75;;
54557;SDS011;40452;50.080;20.040;2023-02-28T06:47:37;13.65;;;6.72;;
54557;SDS011;40452;50.080;20.040;2023-02-28T06:50:05;11.80;;;6.97;;
54557;SDS011;40452;50.080;20.040;2023-02-28T06:52:34;10.45;;;6.45;;
54557;SDS011;40452;50.080;20.040;2023-02-28T06:55:04;11.93;;;6.32;;
54557;SDS011;40452;50.080;20.040;2023-02-28T06:57:30;11.57;;;6.13;;
54557;SDS011;40452;50.080;20.040;2023-02-28T06:59:57;12.93;;;6.03;;
54557;SDS011;40452;50.080;20.040;2023-02-28T07:02:24;13.52;;;6.20;;
54557;SDS011;40452;50.080;20.040;2023-02-28T07:04:50;11.18;;;5.82;;
54557;SDS011;40452;50.080;20.040;2023-02-28T07:07:15;12.52;;;6.18;;
54557;SDS011;40452;50.080;20.040;2023-02-28T07:09:41;12.63;;;6.32;;
54557;SDS011;40452;50.080;20.040;2023-02-28T07:12:06;12.13;;;6.70;;
54557;SDS011;40452;50.080;20.040;2023-02-28T07:14:32;14.85;;;6.80;;
54557;SDS011;40452;50.080;20.040;2023-02-28T07:16:57;15.65;;;6.80;;
54557;SDS011;40452;50.080;20.040;2023-02-28T07:19:23;10.13;;;6.38;;
54557;SDS011;40452;50.080;20.040;2023-02-28T07:21:48;13.95;;;7.50;;
54557;SDS011;40452;50.080;20.040;2023-02-28T07:24:14;15.40;;;7.40;;
54557;SDS011;40452;50.080;20.040;2023-02-28T07:26:41;12.38;;;7.18;;
54557;SDS011;40452;50.080;20.040;2023-02-28T07:29:06;12.93;;;7.43;;
54557;SDS011;40452;50.080;20.040;2023-02-28T07:31:32;12.50;;;6.85;;
54557;SDS011;40452;50.080;20.040;2023-02-28T07:33:57;13.60;;;7.03;;
54557;SDS011;40452;50.080;20.040;2023-02-28T07:36:23;12.38;;;7.28;;
54557;SDS011;40452;50.080;20.040;2023-02-28T07:38:48;13.68;;;7.10;;
54557;SDS011;40452;50.080;20.040;2023-02-28T07:41:18;12.63;;;6.95;;
54557;SDS011;40452;50.080;20.040;2023-02-28T07:43:45;14.55;;;7.38;;
54557;SDS011;40452;50.080;20.040;2023-02-28T07:46:12;13.85;;;7.53;;
54557;SDS011;40452;50.080;20.040;2023-02-28T07:48:40;13.10;;;6.88;;
54557;SDS011;40452;50.080;20.040;2023-02-28T07:51:05;13.48;;;7.78;;
54557;SDS011;40452;50.080;20.040;2023-02-28T07:53:31;15.50;;;7.63;;
54557;SDS011;40452;50.080;20.040;2023-02-28T07:55:57;12.57;;;7.68;;
54557;SDS011;40452;50.080;20.040;2023-02-28T07:58:24;13.30;;;7.10;;
54557;SDS011;40452;50.080;20.040;2023-02-28T08:00:50;13.43;;;7.47;;
54557;SDS011;40452;50.080;20.040;2023-02-28T08:03:19;14.43;;;7.72;;
54557;SDS011;40452;50.080;20.040;2023-02-28T08:05:46;13.02;;;6.63;;
54557;SDS011;40452;50.080;20.040;2023-02-28T08:08:12;14.45;;;7.10;;
54557;SDS011;40452;50.080;20.040;2023-02-28T15:35:43;13.90;;;8.82;;
54557;SDS011;40452;50.080;20.040;2023-02-28T15:38:16;14.10;;;9.35;;
54557;SDS011;40452;50.080;20.040;2023-02-28T15:40:50;13.40;;;7.97;;
54557;SDS011;40452;50.080;20.040;2023-02-28T15:43:32;14.18;;;7.60;;
54557;SDS011;40452;50.080;20.040;2023-02-28T15:46:01;11.47;;;7.70;;
54557;SDS011;40452;50.080;20.040;2023-02-28T15:48:30;12.50;;;7.47;;
54557;SDS011;40452;50.080;20.040;2023-02-28T15:51:23;14.48;;;7.78;;
54557;SDS011;40452;50.080;20.040;2023-02-28T15:53:56;12.80;;;7.30;;
54557;SDS011;40452;50.080;20.040;2023-02-28T15:56:43;11.07;;;6.93;;
54557;SDS011;40452;50.080;20.040;2023-02-28T15:59:15;11.93;;;7.53;;
54557;SDS011;40452;50.080;20.040;2023-02-28T16:04:55;10.98;;;6.82;;
54557;SDS011;40452;50.080;20.040;2023-02-28T16:07:24;13.18;;;6.60;;
54557;SDS011;40452;50.080;20.040;2023-02-28T16:09:50;14.57;;;6.93;;
54557;SDS011;40452;50.080;20.040;2023-02-28T16:12:15;9.27;;;6.15;;
54557;SDS011;40452;50.080;20.040;2023-02-28T16:14:41;9.15;;;5.97;;
54557;SDS011;40452;50.080;20.040;2023-02-28T16:17:12;14.02;;;6.63;;
54557;SDS011;40452;50.080;20.040;2023-02-28T16:19:46;13.35;;;6.63;;
54557;SDS011;40452;50.080;20.040;2023-02-28T16:22:11;11.93;;;6.32;;
54557;SDS011;40452;50.080;20.040;2023-02-28T16:24:37;11.98;;;6.22;;
54557;SDS011;40452;50.080;20.040;2023-02-28T16:27:03;9.55;;;5.80;;
54557;SDS011;40452;50.080;20.040;2023-02-28T16:29:30;10.20;;;5.90;;
54557;SDS011;40452;50.080;20.040;2023-02-28T16:31:58;12.52;;;5.95;;
54557;SDS011;40452;50.080;20.040;2023-02-28T16:34:25;12.52;;;6.13;;
54557;SDS011;40452;50.080;20.040;2023-02-28T16:36:51;12.68;;;5.85;;
54557;SDS011;40452;50.080;20.040;2023-02-28T16:39:17;11.15;;;5.90;;
54557;SDS011;40452;50.080;20.040;2023-02-28T16:41:45;14.70;;;5.57;;
54557;SDS011;40452;50.080;20.040;2023-02-28T16:44:18;10.48;;;5.70;;
54557;SDS011;40452;50.080;20.040;2023-02-28T16:46:51;10.10;;;5.63;;
54557;SDS011;40452;50.080;20.040;2023-02-28T16:49:16;12.85;;;5.00;;
54557;SDS011;40452;50.080;20.040;2023-02-28T16:51:42;11.00;;;5.35;;
54557;SDS011;40452;50.080;20.040;2023-02-28T16:54:07;9.95;;;4.97;;
54557;SDS011;40452;50.080;20.040;2023-02-28T16:56:33;10.57;;;4.57;;
54557;SDS011;40452;50.080;20.040;2023-02-28T16:59:00;10.40;;;5.10;;
54557;SDS011;40452;50.080;20.040;2023-02-28T17:01:26;9.00;;;4.93;;
54557;SDS011;40452;50.080;20.040;2023-02-28T17:03:53;10.82;;;5.03;;
54557;SDS011;40452;50.080;20.040;2023-02-28T17:06:23;9.68;;;4.57;;
54557;SDS011;40452;50.080;20.040;2023-02-28T17:08:52;7.53;;;4.57;;
54557;SDS011;40452;50.080;20.040;2023-02-28T17:11:18;9.95;;;4.70;;
54557;SDS011;40452;50.080;20.040;2023-02-28T17:13:44;10.90;;;4.75;;
54557;SDS011;40452;50.080;20.040;2023-02-28T17:16:22;9.15;;;4.53;;
54557;SDS011;40452;50.080;20.040;2023-02-28T17:18:51;7.80;;;4.38;;
54557;SDS011;40452;50.080;20.040;2023-02-28T17:21:18;8.45;;;4.85;;
54557;SDS011;40452;50.080;20.040;2023-02-28T17:23:43;7.63;;;4.18;;
54557;SDS011;40452;50.080;20.040;2023-02-28T17:26:11;10.77;;;4.22;;
54557;SDS011;40452;50.080;20.040;2023-02-28T17:28:38;9.00;;;4.47;;
54557;SDS011;40452;50.080;20.040;2023-02-28T17:31:04;7.75;;;4.55;;
54557;SDS011;40452;50.080;20.040;2023-02-28T17:33:29;7.05;;;4.10;;
54557;SDS011;40452;50.080;20.040;2023-02-28T17:36:03;8.93;;;4.30;;
54557;SDS011;40452;50.080;20.040;2023-02-28T17:38:29;6.22;;;3.88;;
54557;SDS011;40452;50.080;20.040;2023-02-28T17:40:55;6.20;;;4.10;;
54557;SDS011;40452;50.080;20.040;2023-02-28T17:43:24;7.85;;;4.57;;
54557;SDS011;40452;50.080;20.040;2023-02-28T17:45:51;8.73;;;4.65;;
54557;SDS011;40452;50.080;20.040;2023-02-28T17:48:16;9.93;;;4.55;;
54557;SDS011;40452;50.080;20.040;2023-02-28T17:50:42;8.15;;;4.20;;
54557;SDS011;40452;50.080;20.040;2023-02-28T17:53:07;7.90;;;4.20;;
54557;SDS011;40452;50.080;20.040;2023-02-28T17:55:33;6.50;;;4.38;;
54557;SDS011;40452;50.080;20.040;2023-02-28T17:57:59;7.72;;;4.75;;
54557;SDS011;40452;50.080;20.040;2023-02-28T18:00:25;7.30;;;4.45;;
54557;SDS011;40452;50.080;20.040;2023-02-28T18:02:51;7.85;;;4.78;;
54557;SDS011;40452;50.080;20.040;2023-02-28T18:05:16;9.02;;;5.10;;
54557;SDS011;40452;50.080;20.040;2023-02-28T18:07:42;9.80;;;5.00;;
54557;SDS011;40452;50.080;20.040;2023-02-28T18:10:18;11.20;;;5.53;;
54557;SDS011;40452;50.080;20.040;2023-02-28T18:12:46;9.43;;;6.05;;
54557;SDS011;40452;50.080;20.040;2023-02-28T18:15:16;9.93;;;5.43;;
54557;SDS011;40452;50.080;20.040;2023-02-28T18:17:44;9.35;;;5.50;;
54557;SDS011;40452;50.080;20.040;2023-02-28T18:20:10;9.30;;;6.03;;
54557;SDS011;40452;50.080;20.040;2023-02-28T18:22:37;10.15;;;5.95;;
54557;SDS011;40452;50.080;20.040;2023-02-28T18:25:04;9.43;;;6.07;;
54557;SDS011;40452;50.080;20.040;2023-02-28T18:27:31;9.73;;;5.75;;
54557;SDS011;40452;50.080;20.040;2023-02-28T18:29:57;11.30;;;6.97;;
54557;SDS011;40452;50.080;20.040;2023-02-28T18:32:22;11.75;;;6.88;;
54557;SDS011;40452;50.080;20.040;2023-02-28T18:34:48;9.75;;;6.25;;
54557;SDS011;40452;50.080;20.040;2023-02-28T18:37:13;12.00;;;7.25;;
54557;SDS011;40452;50.080;20.040;2023-02-28T18:39:40;11.63;;;7.22;;
54557;SDS011;40452;50.080;20.040;2023-02-28T18:42:05;12.60;;;7.38;;
54557;SDS011;40452;50.080;20.040;2023-02-28T18:44:31;12.20;;;7.95;;
54557;SDS011;40452;50.080;20.040;2023-02-28T18:46:56;14.40;;;7.25;;
54557;SDS011;40452;50.080;20.040;2023-02-28T18:49:22;13.13;;;8.27;;
54557;SDS011;40452;50.080;20.040;2023-02-28T18:51:56;13.77;;;8.55;;
54557;SDS011;40452;50.080;20.040;2023-02-28T18:54:57;13.32;;;7.88;;
54557;SDS011;40452;50.080;20.040;2023-02-28T18:57:23;12.73;;;8.75;;
54557;SDS011;40452;50.080;20.040;2023-02-28T18:59:48;16.27;;;8.73;;
54557;SDS011;40452;50.080;20.040;2023-02-28T19:02:14;17.02;;;9.65;;
54557;SDS011;40452;50.080;20.040;2023-02-28T19:04:40;16.45;;;9.50;;
54557;SDS011;40452;50.080;20.040;2023-02-28T19:07:06;15.68;;;9.35;;
54557;SDS011;40452;50.080;20.040;2023-02-28T19:09:32;25.48;;;10.27;;
54557;SDS011;40452;50.080;20.040;2023-02-28T19:11:57;19.48;;;9.57;;
54557;SDS011;40452;50.080;20.040;2023-02-28T19:14:23;19.60;;;9.98;;
54557;SDS011;40452;50.080;20.040;2023-02-28T19:16:48;18.95;;;10.25;;
54557;SDS011;40452;50.080;20.040;2023-02-28T19:19:14;17.77;;;11.18;;
54557;SDS011;40452;50.080;20.040;2023-02-28T19:21:40;19.23;;;10.50;;
54557;SDS011;40452;50.080;20.040;2023-02-28T19:24:05;19.48;;;11.20;;
54557;SDS011;40452;50.080;20.040;2023-02-28T19:26:31;17.42;;;10.80;;
54557;SDS011;40452;50.080;20.040;2023-02-28T19:28:56;20.42;;;10.60;;
54557;SDS011;40452;50.080;20.040;2023-02-28T19:31:23;15.65;;;10.13;;
54557;SDS011;40452;50.080;20.040;2023-02-28T19:33:49;16.90;;;9.90;;
54557;SDS011;40452;50.080;20.040;2023-02-28T19:36:18;19.52;;;10.20;;
54557;SDS011;40452;50.080;20.040;2023-02-28T19:38:45;18.77;;;9.57;;
54557;SDS011;40452;50.080;20.040;2023-02-28T19:41:11;17.90;;;10.20;;
54557;SDS011;40452;50.080;20.040;2023-02-28T19:43:38;18.13;;;9.52;;
54557;SDS011;40452;50.080;20.040;2023-02-28T19:46:04;16.15;;;9.27;;
54557;SDS011;40452;50.080;20.040;2023-02-28T19:48:33;18.90;;;9.25;;
54557;SDS011;40452;50.080;20.040;2023-02-28T19:51:01;19.25;;;9.60;;
54557;SDS011;40452;50.080;20.040;2023-02-28T19:53:35;15.93;;;8.98;;
54557;SDS011;40452;50.080;20.040;2023-02-28T19:56:02;13.20;;;8.38;;
54557;SDS011;40452;50.080;20.040;2023-02-28T19:58:31;14.50;;;8.77;;
54557;SDS011;40452;50.080;20.040;2023-02-28T20:00:57;15.25;;;8.43;;
54557;SDS011;40452;50.080;20.040;2023-02-28T20:03:30;15.20;;;8.70;;
54557;SDS011;40452;50.080;20.040;2023-02-28T20:06:01;13.45;;;8.45;;
54557;SDS011;40452;50.080;20.040;2023-02-28T20:08:28;15.65;;;8.95;;
54557;SDS011;40452;50.080;20.040;2023-02-28T20:10:54;13.75;;;8.57;;
54557;SDS011;40452;50.080;20.040;2023-02-28T20:13:19;15.57;;;8.40;;
